Aérodrome :
LOGIN :

S'inscrire | Disclaimer

   EN    FR    IT 

 










Légende :    VFR   VFR Marginal   IFR   IFR Intensif   IFR Très Intensif
Visi : 
Plafond : 
>= 8 km
>= 3000ft
5 à 8 km
1000 à 3000 ft
1500m à 5 km
500 à 1000 ft
800 à 1500m
200 à 500 ft
< 800m
< 200 ft
Symboles :   Orages  Brouillard  Fortes neiges  Fortes précipitations  Vent > 20 kt
SIGMETs :   Divers  Orages  Givrage  Turbulence  Onde Orograph.  Cendres Volcan.







- Altitude de l'aérodrome : 1300 ft
- Code IATA : LIG
- Voir les cartes d'approche


LFBL - Limoges

DERNIER METAR :
  • 181900Z AUTO 21015KT CAVOK 09/04 Q1014 BECMG BKN013

METARs EXPIRÉS :
  • 181830Z AUTO 18011KT 150V210 CAVOK 09/04 Q1014 BECMG BKN013
  • 181800Z AUTO 17011KT 130V200 CAVOK 09/04 Q1013 BECMG BKN013
  • 181730Z AUTO 16012KT CAVOK 08/04 Q1013 BECMG BKN013
  • 181700Z AUTO 17012KT CAVOK 08/03 Q1013 NOSIG
  • 181630Z AUTO 18014KT CAVOK 08/03 Q1013 NOSIG

TAF TAF LFBL
Valide du 18 à 18h jusqu'au 19 à 18h UTC


181700Z 1818/1918 17010KT CAVOK
BECMG 1819/1821 BKN013
TEMPO 1821/1906 3000 -RA BKN006
PROB40
TEMPO 1900/1906 1200 -RADZ BKN002
TEMPO 1907/1912 4000 -SHRA BKN004 SCT015TCU
TEMPO 1912/1918 -SHRA BKN008 SCT020TCU
ATIS : +33 5 55 48 40 37
Pas de NOTAMs connus pour ce terrain.
3 SIGMETs publiés pour la FIR Bordeaux (LFBB) :
 
Turbulence forte
LFBB SIGMET 9 VALID 181900/182200 LFPW
LFBB BORDEAUX FIR/UIR SEV TURB FCST WI N4230 E00030 - N4300 W00145 - N4330 W00145 - N4300 E00045 - N4230 E00030 SFC/FL080 STNR WKN=
Turbulence forte
LFBB SIGMET 7 VALID 181600/182000 LFPW
LFBB BORDEAUX FIR/UIR SEV TURB FCST WI N4500 E00245 - N4300 E00230 - N4330 E00115 - N4345 E00130 - N4345 E00200 - N4500 E00245 SFC/FL060 STNR WKN=
Turbulence forte
LFBB SIGMET 6 VALID 181600/181900 LFPW
LFBB BORDEAUX FIR/UIR SEV TURB FCST WI N4230 E00030 - N4300 W00145 - N4330 W00145 - N4300 E00045 - N4230 E00030 SFC/FL120 STNR WKN=



MET'MAP, la Météo Aéronautique d'un coup d'oeil ! - Copyright ORBIFLY Décembre 2007 - Disclaimer

ORBIFLY MET'MAP TEAM :

Programmation & Développement : Alexandra Zaïnal
Conception & Développement : Baudouin d'Aumeries
Co-Programmation & Développement : Marc-Olivier Méhu
Soutien technique & logistique : Manuel Goepfert

Contact : metmap@orbifly.com




SOURCES & CREDITS :

   NOAA